Aviation Digital Data Service (ADDS)

Output produced by TAFs form (0749 UTC 25 March 2017)
found at http://www.aviationweather.gov/adds/tafs/
 
METAR text: RJFG 250741Z 05007G21KT 340V100 4000 -SHRA BR FEW001 SCT002 BKN004 11/11 Q1013 RMK 1ST001 3ST002 5ST004 A2993
Conditions at: RJFG (TANEGASHIMA AIRP, JP) observed 0741 UTC 25 March 2017
Temperature: 11.0°C (52°F)
Dewpoint: 11.0°C (52°F) [RH = 100%]
Pressure (altimeter): 29.91 inches Hg (1013.0 mb)
Winds: from the NE (50 degrees) at 8 MPH (7 knots; 3.6 m/s)
gusting to 24 MPH (21 knots; 10.9 m/s)
Visibility: 2.49 miles (4.01 km)
Ceiling: 400 feet AGL
Clouds: few clouds at 100 feet AGL
scattered clouds at 200 feet AGL
broken clouds at 400 feet AGL
Weather: -SHRA BR  (light rain showers, mist)